Historique des mesures à Cassis (13260), France
Quotidien Résumé Juillet 7, 2018 Unités:  Métrique    US   Métrique/US
« Précédent (Jour)
Suivant (Jour) »
Quotidien Hebdomadaire Mensuel Annuel Période au choix
  Maximum: Minimum: Moyenne:
Température: TemperatureC °C 22.5 °C 26.2 °C
Point de rosée: DewpointC °C 14.3 °C 15.7 °C
Humidité: Humidity % 42 % 50 %
Vitesse du vent: 0 km/h 0 km/h 8.4 km/h
Rafales: 0 km/h - -
Vent:- - South
Pression: PressurehPa hPa 1010.7 hPa -
Précipitations: 0.0 mm    
Historical Graphs
 
 
Mesures pour : Juillet 7, 2018
Heure Temperature Point de rosée Pression Vent Vitesse du vent Rafales Humidité Pluie (par heure) Conditions
TemperatureC °C DewpointC °C PressurehPa hPa Calm     Humidity % HourlyPrecipMM mm SoftwareType W/m2
00:10 25.4 °C 15.1 °C 1011.4 hPa NNW 9.3 km/h 16.3 km/h 53 % 0.0 mm open2300-1.11 W/m2
01:10 24.8 °C 15.1 °C 1011.1 hPa NW 10.9 km/h 12.2 km/h 55 % 0.0 mm open2300-1.11 W/m2
02:10 24.4 °C 15.1 °C 1011.2 hPa North 5.1 km/h 5.1 km/h 56 % 0.0 mm open2300-1.11 W/m2
03:10 23.6 °C 14.6 °C 1010.9 hPa ENE 5.6 km/h 7.6 km/h 57 % 0.0 mm open2300-1.11 W/m2
04:10 23.2 °C 14.7 °C 1011.1 hPa NNE 10.3 km/h 10.3 km/h 59 % 0.0 mm open2300-1.11 W/m2
05:10 22.6 °C 14.7 °C 1011.0 hPa WSW 12.2 km/h 12.2 km/h 61 % 0.0 mm open2300-1.11 W/m2
06:10 22.5 °C 14.3 °C 1011.0 hPa North 7.6 km/h 7.6 km/h 60 % 0.0 mm open2300-1.11 W/m2
07:10 23.3 °C 14.6 °C 1011.5 hPa Calm     58 % 0.0 mm open2300-1.11 W/m2
08:10 24.7 °C 14.7 °C 1011.8 hPa NNE 4.7 km/h 4.7 km/h 54 % 0.0 mm open2300-1.11 W/m2
09:10 25.4 °C 15.1 °C 1012.1 hPa Calm   7.6 km/h 53 % 0.0 mm open2300-1.11 W/m2
10:10 26.3 °C 16.2 °C 1012.2 hPa SE 3.4 km/h 8.9 km/h 54 % 0.0 mm open2300-1.11 W/m2
11:10 30.8 °C 18.2 °C 1012.4 hPa SE 4.2 km/h 5.6 km/h 47 % 0.0 mm open2300-1.11 W/m2
12:10 32.6 °C 18.7 °C 1012.5 hPa SE 8 km/h 8 km/h 44 % 0.0 mm open2300-1.11 W/m2
13:10 32.9 °C 18.2 °C 1012.5 hPa SE 15.6 km/h 15.6 km/h 42 % 0.0 mm open2300-1.11 W/m2
14:10 32.4 °C 18.2 °C 1011.9 hPa SSE 15.6 km/h 15.6 km/h 43 % 0.0 mm open2300-1.11 W/m2
15:10 31.6 °C 18.2 °C 1011.8 hPa SSE 15 km/h 15 km/h 45 % 0.0 mm open2300-1.11 W/m2
16:10 30.8 °C 18.9 °C 1011.8 hPa SSE 3.4 km/h 15.6 km/h 49 % 0.0 mm open2300-1.11 W/m2
17:10 30.9 °C 17.9 °C 1011.6 hPa West 12.7 km/h 25.4 km/h 46 % 0.0 mm open2300-1.11 W/m2
18:10 30.8 °C 16.8 °C 1010.8 hPa West 37 km/h 37 km/h 43 % 0.0 mm open2300-1.11 W/m2
19:10 30.1 °C 15.8 °C 1010.7 hPa NW 6.4 km/h 27.7 km/h 42 % 0.0 mm open2300-1.11 W/m2
20:10 29.4 °C 16.2 °C 1011.3 hPa Calm   14.5 km/h 45 % 0.0 mm open2300-1.11 W/m2
21:10 27.3 °C 16.6 °C 1011.8 hPa NW 8.9 km/h 37.5 km/h 52 % 0.0 mm open2300-1.11 W/m2
22:10 25.4 °C 17.6 °C 1012.2 hPa Calm   33.6 km/h 62 % 0.0 mm open2300-1.11 W/m2
23:10 24.4 °C 18.1 °C 1012.2 hPa WNW 12.2 km/h 24.8 km/h 68 % 0.0 mm open2300-1.11 W/m2
Observations météo à CASSIS
WU-History script by Weather Underground - 1 mb